CDT,Max TemperatureF,Mean TemperatureF,Min TemperatureF,Max Dew PointF,MeanDew PointF,Min DewpointF,Max Humidity, Mean Humidity, Min Humidity, Max Sea Level PressureIn, Mean Sea Level PressureIn, Min Sea Level PressureIn, Max VisibilityMiles, Mean VisibilityMiles, Min VisibilityMiles, Max Wind SpeedMPH, Mean Wind SpeedMPH, Max Gust SpeedMPH,PrecipitationIn, CloudCover, Events, WindDirDegrees
2013-5-1,55,44,32,39,34,28,100,92,38,30.52,30.22,29.86,10,4,1,41,27,51,0.00,8,Rain-Snow,11
2013-5-2,48,39,30,34,31,27,100,81,46,30.65,30.57,30.45,10,8,1,20,14,26,0.00,5,Snow,326
2013-5-3,59,42,26,36,30,27,100,66,31,30.44,30.23,30.09,10,10,10,16,8,25,0.00,0,,336
2013-5-4,59,42,26,30,26,21,100,55,23,30.21,30.14,30.09,10,10,10,24,12,31,0.00,0,,357
2013-5-5,64,46,28,30,27,25,93,51,24,30.25,30.19,30.12,10,10,7,15,8,20,0.00,0,,1
2013-5-6,71,52,33,45,37,28,87,54,28,30.15,30.08,29.99,10,10,10,23,7,31,0.00,0,,152
2013-5-7,77,64,51,55,50,43,94,72,36,30.03,29.93,29.81,10,10,10,24,13,30,0.00,5,,128
2013-5-8,73,62,50,55,51,45,100,78,36,30.00,29.94,29.88,10,9,1,18,11,30,0.00,3,Rain,47
2013-5-9,62,54,44,55,51,45,100,86,59,30.15,30.08,29.97,10,10,7,23,10,28,0.00,6,Rain,1
2013-5-10,69,55,41,52,46,41,100,77,38,30.19,30.16,30.11,10,9,5,31,8,36,0.00,2,Rain,299
2013-5-11,68,58,48,50,39,34,94,57,28,30.39,30.30,30.19,10,10,10,20,11,25,0.00,2,,3
2013-5-12,80,63,46,50,43,34,81,52,26,30.28,30.13,30.05,10,10,10,18,10,26,0.00,0,,243
2013-5-13,91,68,46,50,45,43,87,47,20,30.09,30.04,29.97,10,10,10,14,7,,0.00,0,,207
2013-5-14,95,73,51,52,46,43,76,40,18,29.97,29.86,29.77,10,10,10,18,7,25,0.00,0,,237
2013-5-15,86,72,57,54,49,45,72,46,29,29.89,29.85,29.79,10,10,10,20,11,26,0.00,0,,78
2013-5-16,84,70,55,61,54,50,94,67,33,29.89,29.85,29.79,10,10,10,23,10,30,0.00,2,Rain,179
2013-5-17,84,70,55,64,60,55,100,74,37,29.90,29.86,29.80,10,10,10,29,12,34,0.00,1,,169
2013-5-18,86,73,60,68,62,54,100,77,43,29.86,29.74,29.60,10,8,2,33,15,41,0.00,4,,134
2013-5-19,71,61,50,55,51,46,94,68,46,29.78,29.71,29.68,10,10,10,25,16,32,0.00,2,,328
2013-5-20,69,58,46,52,47,45,100,69,40,29.91,29.81,29.76,10,10,10,33,15,44,0.00,2,,292
2013-5-21,68,57,46,45,43,41,93,62,37,29.94,29.89,29.82,10,10,10,32,17,41,0.00,2,,317
2013-5-22,73,57,41,50,46,41,100,64,38,30.05,29.95,29.92,10,10,10,20,8,21,0.00,0,,339
2013-5-23,71,58,46,54,51,46,100,76,50,30.19,30.14,30.07,10,10,10,25,15,30,0.00,6,Rain,78
2013-5-24,84,70,57,68,58,54,94,74,40,30.15,30.05,29.91,10,10,5,37,22,51,0.00,5,,148
2013-5-25,91,76,62,66,57,45,88,54,23,30.02,29.93,29.83,10,10,5,26,18,41,0.00,1,Rain,155
2013-5-26,95,78,62,63,56,46,100,55,20,29.91,29.82,29.74,10,10,5,30,15,37,0.00,1,Rain,166
2013-5-27,80,68,57,66,62,50,100,74,57,29.75,29.71,29.67,10,10,5,23,12,29,0.00,2,,42
2013-5-28,82,70,59,66,60,50,100,76,42,29.81,29.70,29.57,10,8,2,25,10,30,0.00,3,Rain,75
2013-5-29,87,70,53,64,58,48,100,75,38,29.65,29.54,29.37,10,10,1,39,15,53,0.00,4,Rain,156
2013-5-30,71,60,50,55,51,45,100,74,40,29.77,29.67,29.61,10,10,4,18,7,33,0.00,1,Rain,221
2013-5-31,78,64,50,52,44,34,100,56,21,29.95,29.81,29.76,10,10,10,29,11,40,0.00,0,,291